Time;durP1;ratioP1;P1;durP2;ratioP2;P2;SDS_P1;SDS_P2;PMS_P1;PMS_P2;Temp;Humidity;BMP_temperature;BMP_pressure;BME280_temperature;BME280_humidity;BME280_pressure;Samples;Min_cycle;Max_cycle;Signal;HPM_P1;HPM_P2
2021/07/31 00:00:13;;;;;;;4.30;1.57;;;20.20;76.70;;;;;;10496401;28;20224;-34
2021/07/31 00:05:36;;;;;;;1.93;1.30;;;20.20;76.90;;;;;;10490751;28;20713;-33
2021/07/31 00:10:58;;;;;;;2.03;1.30;;;20.20;76.60;;;;;;10493609;28;20612;-36
2021/07/31 00:16:21;;;;;;;2.23;1.40;;;20.20;76.60;;;;;;10455324;28;20190;-31
2021/07/31 00:21:44;;;;;;;1.33;1.10;;;20.20;76.40;;;;;;10474421;28;20220;-35
2021/07/31 00:27:06;;;;;;;2.27;1.57;;;20.20;76.40;;;;;;10519786;28;20202;-38
2021/07/31 00:32:28;;;;;;;3.93;1.50;;;20.20;76.50;;;;;;10500034;28;20203;-37
2021/07/31 00:37:52;;;;;;;2.13;1.50;;;20.20;76.20;;;;;;10493573;28;20223;-33
2021/07/31 00:43:14;;;;;;;2.17;1.50;;;20.20;76.30;;;;;;10530747;28;20219;-36
2021/07/31 00:48:36;;;;;;;1.43;1.20;;;20.10;76.10;;;;;;10536770;28;20705;-36
2021/07/31 00:53:59;;;;;;;1.50;1.40;;;20.20;75.80;;;;;;10502554;28;20599;-36
2021/07/31 00:59:22;;;;;;;2.87;1.30;;;20.10;75.90;;;;;;10520905;28;20721;-36
2021/07/31 01:04:44;;;;;;;1.30;1.07;;;20.10;75.80;;;;;;10535553;28;20210;-33
2021/07/31 01:10:07;;;;;;;1.27;1.17;;;20.10;75.70;;;;;;10519643;28;20216;-32
2021/07/31 01:15:30;;;;;;;2.93;1.60;;;20.10;75.60;;;;;;10502477;28;20200;-36
2021/07/31 01:20:52;;;;;;;4.37;1.37;;;20.00;75.10;;;;;;10492221;28;20572;-35
2021/07/31 01:26:15;;;;;;;3.90;1.27;;;20.00;75.20;;;;;;10492837;28;20199;-38
2021/07/31 01:31:38;;;;;;;1.63;1.30;;;20.00;75.30;;;;;;10492128;28;20212;-32
2021/07/31 01:37:00;;;;;;;2.77;1.20;;;19.90;75.30;;;;;;10494195;28;20200;-37
2021/07/31 01:47:27;;;;;;;3.50;1.30;;;19.90;75.00;;;;;;10447170;28;20243;-22
2021/07/31 01:52:49;;;;;;;2.50;1.43;;;19.90;74.90;;;;;;10447343;28;20217;-22
2021/07/31 01:58:11;;;;;;;2.00;1.23;;;19.80;74.90;;;;;;10442229;28;20204;-22
2021/07/31 02:03:34;;;;;;;2.10;1.20;;;19.80;75.00;;;;;;10450296;28;20224;-22
2021/07/31 02:08:56;;;;;;;2.50;1.50;;;19.80;74.90;;;;;;10449791;28;20205;-23
2021/07/31 02:14:19;;;;;;;1.70;1.30;;;19.80;74.90;;;;;;10449637;28;20681;-23
2021/07/31 02:19:42;;;;;;;3.47;1.30;;;19.80;74.70;;;;;;10449440;28;20320;-22
2021/07/31 02:25:05;;;;;;;1.63;1.13;;;19.70;74.50;;;;;;10408833;28;20221;-22
2021/07/31 02:30:27;;;;;;;3.40;1.33;;;19.80;74.30;;;;;;10414471;28;20634;-22
2021/07/31 02:35:51;;;;;;;2.63;1.40;;;19.70;74.30;;;;;;10453781;28;20212;-22
2021/07/31 02:41:13;;;;;;;2.77;1.20;;;19.60;74.20;;;;;;10456783;28;20216;-22
2021/07/31 02:46:36;;;;;;;2.73;1.00;;;19.70;74.00;;;;;;10456776;28;20264;-22
2021/07/31 02:51:59;;;;;;;2.80;1.23;;;19.70;73.90;;;;;;10455817;28;20284;-22
2021/07/31 02:57:21;;;;;;;1.60;1.00;;;19.60;73.70;;;;;;10416198;28;20202;-22
2021/07/31 03:02:43;;;;;;;2.80;1.13;;;19.60;73.40;;;;;;10420318;28;20232;-23
2021/07/31 03:08:07;;;;;;;1.60;1.23;;;19.50;73.20;;;;;;10497779;28;20197;-23
2021/07/31 03:13:29;;;;;;;1.70;1.20;;;19.50;73.80;;;;;;10495257;28;20212;-23
2021/07/31 03:18:51;;;;;;;2.80;1.33;;;19.50;72.90;;;;;;10496265;28;20200;-22
2021/07/31 03:24:14;;;;;;;1.60;1.10;;;19.50;72.70;;;;;;10463043;28;20224;-22
2021/07/31 03:29:36;;;;;;;2.33;1.10;;;19.50;72.40;;;;;;10455045;28;20526;-22
2021/07/31 03:34:59;;;;;;;1.73;1.03;;;19.50;72.50;;;;;;10477854;28;20227;-23
2021/07/31 03:40:22;;;;;;;2.27;1.30;;;19.50;72.30;;;;;;10496250;28;20216;-22
2021/07/31 03:45:44;;;;;;;5.07;1.20;;;19.50;72.10;;;;;;10455542;28;20227;-22
2021/07/31 03:51:06;;;;;;;3.63;1.27;;;19.50;71.70;;;;;;10472740;28;20208;-23
2021/07/31 03:56:30;;;;;;;1.80;1.00;;;19.50;71.40;;;;;;10469025;28;20216;-24
2021/07/31 04:01:52;;;;;;;2.50;1.40;;;19.50;71.00;;;;;;10495048;28;20220;-22
2021/07/31 04:07:14;;;;;;;6.43;1.30;;;19.50;71.10;;;;;;10494151;28;20196;-22
2021/07/31 04:12:37;;;;;;;1.73;1.23;;;19.50;70.50;;;;;;10453291;28;20228;-23
2021/07/31 04:17:59;;;;;;;4.27;1.30;;;19.50;70.30;;;;;;10453187;28;20205;-22
2021/07/31 04:23:21;;;;;;;2.83;0.97;;;19.50;69.60;;;;;;10452619;28;20221;-22
2021/07/31 04:28:45;;;;;;;1.83;0.93;;;19.50;69.70;;;;;;10454421;28;20192;-22
2021/07/31 04:34:07;;;;;;;3.50;1.00;;;19.50;69.40;;;;;;10462279;28;20217;-22
2021/07/31 04:39:29;;;;;;;1.93;1.03;;;19.50;69.10;;;;;;10492501;28;20196;-23
2021/07/31 04:44:53;;;;;;;6.77;1.20;;;19.50;68.80;;;;;;10463617;28;20231;-22
2021/07/31 04:50:15;;;;;;;3.50;1.20;;;19.50;69.00;;;;;;10450757;28;20198;-22
2021/07/31 04:55:37;;;;;;;4.20;1.33;;;19.50;69.00;;;;;;10451793;28;20696;-22
2021/07/31 05:01:01;;;;;;;4.13;1.10;;;19.50;68.80;;;;;;10451629;28;20221;-22
2021/07/31 05:06:23;;;;;;;4.50;1.17;;;19.50;68.80;;;;;;10452139;28;20569;-22
2021/07/31 05:11:45;;;;;;;4.93;1.27;;;19.50;68.50;;;;;;10453057;28;20203;-23
2021/07/31 05:17:08;;;;;;;2.67;1.30;;;19.50;68.50;;;;;;10493278;28;20599;-22
2021/07/31 05:22:30;;;;;;;2.20;1.07;;;19.50;68.40;;;;;;10472875;28;20585;-21
2021/07/31 05:27:52;;;;;;;2.97;1.10;;;19.60;68.50;;;;;;10454251;28;20588;-22
2021/07/31 05:33:16;;;;;;;4.47;1.13;;;19.60;68.20;;;;;;10475357;28;20692;-22
2021/07/31 05:38:38;;;;;;;6.20;1.40;;;19.60;68.00;;;;;;10468549;28;20192;-22
2021/07/31 05:44:00;;;;;;;3.90;1.00;;;19.70;68.00;;;;;;10453527;28;20236;-23
2021/07/31 05:49:23;;;;;;;5.97;1.40;;;19.70;67.70;;;;;;10409946;28;20190;-21
2021/07/31 05:54:45;;;;;;;2.97;1.13;;;19.70;67.70;;;;;;10451049;28;20217;-22
2021/07/31 06:00:09;;;;;;;3.63;0.90;;;19.70;67.70;;;;;;10451302;28;20216;-22
2021/07/31 06:05:32;;;;;;;2.80;1.30;;;19.70;67.50;;;;;;10473518;28;20221;-22
2021/07/31 06:11:00;;;;;;;1.60;1.00;;;19.70;67.40;;;;;;10476330;28;20188;-21
2021/07/31 06:16:24;;;;;;;6.73;1.03;;;19.70;68.10;;;;;;10477328;28;20205;-22
2021/07/31 06:21:47;;;;;;;3.63;1.20;;;19.70;67.90;;;;;;10475145;28;20228;-22
2021/07/31 06:27:09;;;;;;;3.70;1.10;;;19.80;67.80;;;;;;10476843;28;20213;-22
2021/07/31 06:32:32;;;;;;;3.33;1.10;;;19.80;67.90;;;;;;10457833;28;20671;-23
2021/07/31 06:37:55;;;;;;;2.93;1.00;;;19.90;67.70;;;;;;10457605;28;20701;-22
2021/07/31 06:43:17;;;;;;;4.50;1.10;;;19.90;67.80;;;;;;10455576;28;20747;-21
2021/07/31 06:48:39;;;;;;;2.33;1.13;;;19.90;67.70;;;;;;10489379;28;20192;-22
2021/07/31 06:54:03;;;;;;;3.23;1.17;;;19.90;67.40;;;;;;10416457;28;20712;-22
2021/07/31 06:59:25;;;;;;;1.97;1.10;;;19.90;67.50;;;;;;10475602;28;20779;-22
2021/07/31 07:04:47;;;;;;;5.83;1.40;;;20.00;67.40;;;;;;10480311;28;20221;-22
2021/07/31 07:10:12;;;;;;;2.13;1.40;;;20.00;67.70;;;;;;10456354;28;20567;-22
2021/07/31 07:15:35;;;;;;;2.37;1.00;;;20.10;67.50;;;;;;10455006;28;20217;-24
2021/07/31 07:20:57;;;;;;;3.07;1.10;;;20.10;67.40;;;;;;10456556;28;20225;-22
2021/07/31 07:26:21;;;;;;;4.43;1.97;;;20.10;67.00;;;;;;10457677;28;20225;-22
2021/07/31 07:31:43;;;;;;;3.20;1.10;;;20.10;67.30;;;;;;10453669;28;20196;-22
2021/07/31 07:37:05;;;;;;;4.80;1.40;;;20.10;67.00;;;;;;10455210;28;20700;-22
2021/07/31 07:42:29;;;;;;;4.33;1.57;;;20.10;67.90;;;;;;10455080;28;20231;-21
2021/07/31 07:47:51;;;;;;;72.43;4.97;;;20.10;68.20;;;;;;10493734;22;20232;-33
2021/07/31 07:53:13;;;;;;;44.90;4.63;;;20.00;68.50;;;;;;10496221;28;20200;-34
2021/07/31 07:58:36;;;;;;;33.20;3.60;;;20.00;68.00;;;;;;10473997;28;20196;-37
2021/07/31 08:03:59;;;;;;;28.30;3.07;;;20.00;67.90;;;;;;10458716;28;20232;-36
2021/07/31 08:09:21;;;;;;;22.73;3.33;;;20.00;68.10;;;;;;10467770;28;20615;-33
2021/07/31 08:14:45;;;;;;;14.57;1.97;;;20.00;67.50;;;;;;10445675;28;20697;-34
2021/07/31 08:20:08;;;;;;;8.80;1.60;;;20.00;67.70;;;;;;10453104;28;20557;-36
2021/07/31 08:25:30;;;;;;;12.73;2.13;;;20.00;67.60;;;;;;10451279;28;20696;-37
2021/07/31 08:30:53;;;;;;;9.73;1.90;;;20.00;67.10;;;;;;10452624;28;20193;-38
2021/07/31 08:36:16;;;;;;;6.93;1.40;;;20.10;68.30;;;;;;10464746;28;20217;-34
2021/07/31 08:41:39;;;;;;;6.87;1.33;;;20.10;67.90;;;;;;10435779;28;20217;-34
2021/07/31 08:47:04;;;;;;;5.67;1.80;;;20.10;67.50;;;;;;10448496;28;20236;-34
2021/07/31 08:52:30;;;;;;;2.27;1.47;;;20.10;67.80;;;;;;10450103;28;20272;-36
2021/07/31 08:57:52;;;;;;;5.43;1.37;;;20.20;68.10;;;;;;10434977;28;20217;-36
2021/07/31 09:03:17;;;;;;;3.87;1.67;;;20.20;67.70;;;;;;10451375;28;20220;-38
2021/07/31 09:08:52;;;;;;;4.80;1.60;;;20.20;67.90;;;;;;10450011;28;20196;-36
2021/07/31 09:14:16;;;;;;;4.43;1.70;;;20.20;68.00;;;;;;10452266;28;20556;-34
2021/07/31 09:19:46;;;;;;;4.90;1.57;;;20.30;68.20;;;;;;10436609;28;20208;-38
2021/07/31 09:25:09;;;;;;;5.17;1.47;;;20.30;68.40;;;;;;10446498;28;20221;-35
2021/07/31 09:30:31;;;;;;;5.30;1.83;;;20.30;68.30;;;;;;10449354;28;20281;-35
2021/07/31 09:36:04;;;;;;;3.87;1.33;;;20.30;68.20;;;;;;10446065;28;20211;-36
2021/07/31 09:41:36;;;;;;;9.03;1.63;;;20.30;67.80;;;;;;10457797;28;20688;-37
2021/07/31 09:47:01;;;;;;;3.27;1.30;;;20.30;67.40;;;;;;10454274;28;20250;-38
2021/07/31 09:52:25;;;;;;;5.93;1.60;;;20.40;67.50;;;;;;10447741;28;20201;-38
2021/07/31 09:57:47;;;;;;;3.07;1.30;;;20.30;67.70;;;;;;10451759;28;20215;-38
2021/07/31 10:03:11;;;;;;;2.73;1.40;;;20.30;68.00;;;;;;10459955;28;20220;-31
2021/07/31 10:08:36;;;;;;;2.73;1.20;;;20.30;68.30;;;;;;10455486;28;20274;-36
2021/07/31 10:14:00;;;;;;;2.07;1.30;;;20.40;68.30;;;;;;10458150;28;20259;-38
2021/07/31 10:19:22;;;;;;;9.97;1.60;;;20.40;68.60;;;;;;10458315;28;20201;-34
2021/07/31 10:25:09;;;;;;;8.97;2.20;;;20.40;70.70;;;;;;10463763;28;20224;-34
2021/07/31 10:30:33;;;;;;;8.33;1.63;;;20.30;74.80;;;;;;10455645;28;20196;-32
2021/07/31 10:36:28;;;;;;;3.87;1.80;;;20.40;76.60;;;;;;10442617;28;20217;-36
2021/07/31 10:41:58;;;;;;;17.23;2.47;;;20.30;76.40;;;;;;10447991;28;20221;-34
2021/07/31 10:47:39;;;;;;;6.57;1.80;;;20.30;76.60;;;;;;10481535;28;20229;-35
2021/07/31 10:53:03;;;;;;;2.57;1.43;;;20.20;76.70;;;;;;10498292;28;20567;-35
2021/07/31 10:58:29;;;;;;;16.90;2.13;;;20.20;77.50;;;;;;10497255;28;20196;-34
2021/07/31 11:03:52;;;;;;;25.10;3.23;;;20.20;77.40;;;;;;10497751;28;20213;-32
2021/07/31 11:09:14;;;;;;;17.73;2.73;;;20.30;77.40;;;;;;10494582;28;20576;-38
2021/07/31 11:15:08;;;;;;;16.73;2.30;;;20.30;77.00;;;;;;10481190;28;20683;-37
2021/07/31 11:20:34;;;;;;;10.10;2.10;;;20.30;76.40;;;;;;10457406;28;20189;-36
2021/07/31 11:25:56;;;;;;;4.67;1.67;;;20.30;76.10;;;;;;10455908;28;20221;-39
2021/07/31 11:31:20;;;;;;;2.63;1.30;;;20.30;75.70;;;;;;10453414;28;20204;-37
2021/07/31 11:36:53;;;;;;;5.47;1.90;;;20.30;75.40;;;;;;10454936;28;20213;-35
2021/07/31 11:42:19;;;;;;;3.13;1.63;;;20.40;75.60;;;;;;10454429;28;20716;-38
2021/07/31 11:47:43;;;;;;;4.63;1.50;;;20.40;75.20;;;;;;10487624;28;20580;-36
2021/07/31 11:53:23;;;;;;;4.40;1.87;;;20.40;75.10;;;;;;10464309;28;20238;-34
2021/07/31 11:58:46;;;;;;;5.47;1.60;;;20.40;74.50;;;;;;10414130;28;20202;-36
2021/07/31 12:04:10;;;;;;;2.67;1.30;;;20.40;75.10;;;;;;10442526;28;20216;-35
2021/07/31 12:09:33;;;;;;;3.60;1.30;;;20.50;75.40;;;;;;10472655;28;20208;-34
2021/07/31 12:15:22;;;;;;;2.80;1.40;;;20.40;75.30;;;;;;10472169;28;20227;-36
2021/07/31 12:20:47;;;;;;;3.47;1.40;;;20.40;75.10;;;;;;10471791;28;20189;-34
2021/07/31 12:26:10;;;;;;;3.70;1.30;;;20.40;75.10;;;;;;10472683;28;20211;-33
2021/07/31 12:31:33;;;;;;;5.70;1.33;;;20.40;74.80;;;;;;10465641;28;20695;-37
2021/07/31 12:36:56;;;;;;;2.47;1.13;;;20.40;74.80;;;;;;10470797;28;20509;-38
2021/07/31 12:42:21;;;;;;;1.57;1.10;;;20.40;74.60;;;;;;10470221;28;20205;-35
2021/07/31 12:47:44;;;;;;;2.83;1.10;;;20.50;74.90;;;;;;10474649;28;20225;-35
2021/07/31 12:53:08;;;;;;;1.73;1.20;;;20.50;74.70;;;;;;10452159;28;20189;-34
2021/07/31 12:58:30;;;;;;;2.90;1.00;;;20.40;74.70;;;;;;10442067;28;20680;-38
2021/07/31 13:03:52;;;;;;;2.13;1.03;;;20.40;74.40;;;;;;10450638;28;20635;-37
2021/07/31 13:09:15;;;;;;;2.03;1.20;;;20.40;74.20;;;;;;10443994;28;20206;-36
2021/07/31 13:14:39;;;;;;;2.60;0.87;;;20.40;74.30;;;;;;10445860;28;20790;-33
2021/07/31 13:20:01;;;;;;;3.63;1.30;;;20.40;74.60;;;;;;10450141;28;20196;-39
2021/07/31 13:25:24;;;;;;;4.23;1.50;;;20.40;74.50;;;;;;10442629;28;20227;-35
2021/07/31 13:30:46;;;;;;;3.70;1.63;;;20.40;74.30;;;;;;10438050;28;20676;-36
2021/07/31 13:36:08;;;;;;;1.87;1.03;;;20.30;77.10;;;;;;10450272;28;20687;-34
2021/07/31 13:41:33;;;;;;;2.57;1.27;;;20.20;78.60;;;;;;10448624;28;20197;-37
2021/07/31 13:46:55;;;;;;;2.03;1.17;;;20.20;79.20;;;;;;10447747;28;20229;-35
2021/07/31 13:52:17;;;;;;;1.90;1.30;;;20.20;79.80;;;;;;10430242;28;20193;-36
2021/07/31 13:57:42;;;;;;;1.43;1.33;;;20.20;79.20;;;;;;10408950;28;20218;-36
2021/07/31 14:03:05;;;;;;;2.60;1.70;;;20.20;79.40;;;;;;10449689;28;20217;-37
2021/07/31 14:08:27;;;;;;;4.80;2.00;;;20.20;79.50;;;;;;10434551;28;20597;-34
2021/07/31 14:13:51;;;;;;;3.40;1.87;;;20.20;80.80;;;;;;10448194;28;20217;-34
2021/07/31 14:19:13;;;;;;;2.53;1.50;;;20.20;81.20;;;;;;10459487;28;20254;-36
2021/07/31 14:24:35;;;;;;;1.40;1.30;;;20.30;81.10;;;;;;10509644;22;20230;-22
2021/07/31 14:29:58;;;;;;;2.40;1.47;;;20.30;80.70;;;;;;10516109;28;20575;-23
2021/07/31 14:35:20;;;;;;;1.80;1.40;;;20.30;81.00;;;;;;10488715;28;20238;-22
2021/07/31 14:40:43;;;;;;;6.23;1.60;;;20.30;80.20;;;;;;10495009;28;20242;-23
2021/07/31 14:46:13;;;;;;;5.67;1.80;;;20.30;80.30;;;;;;10491846;28;20219;-23
2021/07/31 14:51:35;;;;;;;3.77;1.47;;;20.30;79.90;;;;;;10490121;28;20676;-23
2021/07/31 14:56:57;;;;;;;3.57;1.40;;;20.30;80.00;;;;;;10435673;28;20189;-23
2021/07/31 15:02:21;;;;;;;3.53;1.10;;;20.30;80.20;;;;;;10434125;28;20214;-22
2021/07/31 15:07:43;;;;;;;1.40;1.30;;;20.30;79.80;;;;;;10437023;28;20205;-24
2021/07/31 15:13:05;;;;;;;2.67;1.60;;;20.30;80.30;;;;;;10463825;28;20225;-21
2021/07/31 15:18:28;;;;;;;1.37;1.27;;;20.40;80.40;;;;;;10415222;28;20197;-22
2021/07/31 15:23:50;;;;;;;1.23;1.13;;;20.30;80.10;;;;;;10444553;28;20213;-22
2021/07/31 15:29:12;;;;;;;3.50;1.20;;;20.40;78.60;;;;;;10450601;28;20254;-23
2021/07/31 15:34:36;;;;;;;4.67;1.60;;;20.40;78.30;;;;;;10453403;28;20289;-23
2021/07/31 15:39:58;;;;;;;10.70;1.60;;;20.40;78.90;;;;;;10453938;28;20204;-23
2021/07/31 15:45:21;;;;;;;3.30;1.40;;;20.40;79.30;;;;;;10433062;28;20279;-24
2021/07/31 15:50:44;;;;;;;3.50;1.60;;;20.40;78.60;;;;;;10446652;28;20208;-23
2021/07/31 15:56:08;;;;;;;5.63;1.67;;;20.40;79.40;;;;;;10451258;28;20201;-23
2021/07/31 16:01:31;;;;;;;10.50;1.73;;;20.40;79.90;;;;;;10426512;28;20610;-22
2021/07/31 16:06:54;;;;;;;11.13;1.70;;;20.40;78.90;;;;;;10416924;28;20707;-23
2021/07/31 16:12:16;;;;;;;5.83;1.70;;;20.40;78.40;;;;;;10449768;28;20228;-23
2021/07/31 16:17:38;;;;;;;4.70;1.83;;;20.40;78.80;;;;;;10443114;28;20197;-22
2021/07/31 16:23:01;;;;;;;7.57;1.83;;;20.50;78.50;;;;;;10452065;28;20216;-23
2021/07/31 16:28:24;;;;;;;1.57;1.10;;;20.40;78.70;;;;;;10452081;28;20595;-22
2021/07/31 16:33:46;;;;;;;3.73;1.40;;;20.40;78.40;;;;;;10419555;28;20884;-24
2021/07/31 16:39:09;;;;;;;4.90;1.50;;;20.40;78.10;;;;;;10411824;28;20677;-22
2021/07/31 16:44:31;;;;;;;2.73;1.30;;;20.40;77.90;;;;;;10411906;28;20213;-23
2021/07/31 16:49:53;;;;;;;2.93;1.13;;;20.40;77.80;;;;;;10431953;28;20204;-23
2021/07/31 16:55:17;;;;;;;2.77;1.40;;;20.40;78.00;;;;;;10411282;28;20210;-24
2021/07/31 17:00:44;;;;;;;3.07;1.37;;;20.40;78.10;;;;;;10410581;28;20194;-23
2021/07/31 17:06:06;;;;;;;3.97;1.70;;;20.40;77.60;;;;;;10410418;28;20299;-24
2021/07/31 17:11:29;;;;;;;3.63;1.50;;;20.40;77.50;;;;;;10410819;28;20600;-22
2021/07/31 17:16:51;;;;;;;4.60;1.10;;;20.40;77.00;;;;;;10410791;28;20197;-24
2021/07/31 17:22:13;;;;;;;1.63;1.13;;;20.40;76.70;;;;;;10424698;28;20232;-23
2021/07/31 17:27:37;;;;;;;2.13;1.10;;;20.40;76.90;;;;;;10470748;28;20199;-23
2021/07/31 17:32:59;;;;;;;5.50;1.63;;;20.40;76.50;;;;;;10452993;28;20696;-22
2021/07/31 17:38:21;;;;;;;5.47;1.37;;;20.40;76.50;;;;;;10443131;28;20193;-22
2021/07/31 17:43:44;;;;;;;4.57;1.70;;;20.40;77.00;;;;;;10448417;28;20225;-23
2021/07/31 17:49:06;;;;;;;3.30;1.53;;;20.40;77.30;;;;;;10450022;28;20580;-22
2021/07/31 17:54:29;;;;;;;3.80;1.43;;;20.40;77.90;;;;;;10444941;28;20213;-22
2021/07/31 17:59:52;;;;;;;9.43;1.80;;;20.40;77.50;;;;;;10450708;28;20208;-23
2021/07/31 18:05:14;;;;;;;4.77;1.77;;;20.40;77.50;;;;;;10453921;28;20228;-23
2021/07/31 18:10:36;;;;;;;3.03;1.30;;;20.40;77.10;;;;;;10451910;28;20201;-22
2021/07/31 18:16:00;;;;;;;2.87;1.23;;;20.40;76.80;;;;;;10421109;28;20228;-25
2021/07/31 18:21:22;;;;;;;1.90;1.30;;;20.40;76.50;;;;;;10420744;28;20204;-22
2021/07/31 18:26:44;;;;;;;1.87;1.50;;;20.30;76.20;;;;;;10450255;28;20233;-26
2021/07/31 18:32:09;;;;;;;2.97;1.30;;;20.30;76.30;;;;;;10411885;28;20230;-23
2021/07/31 18:37:31;;;;;;;4.50;1.63;;;20.30;76.20;;;;;;10409977;28;20198;-23
2021/07/31 18:42:53;;;;;;;3.27;1.60;;;20.30;75.80;;;;;;10409882;28;20229;-23
2021/07/31 18:48:17;;;;;;;3.63;1.40;;;20.30;76.20;;;;;;10416792;28;20213;-23
2021/07/31 18:53:39;;;;;;;1.97;1.17;;;20.20;75.90;;;;;;10449826;28;20213;-23
2021/07/31 18:59:01;;;;;;;5.17;1.30;;;20.20;76.10;;;;;;10433851;28;20190;-24
2021/07/31 19:04:24;;;;;;;2.77;1.30;;;20.30;76.50;;;;;;10409485;28;20685;-23
2021/07/31 19:09:47;;;;;;;2.90;1.30;;;20.20;76.10;;;;;;10408223;28;20197;-22
2021/07/31 19:15:10;;;;;;;2.13;1.20;;;20.20;76.10;;;;;;10407452;28;20590;-24
2021/07/31 19:20:34;;;;;;;7.67;1.67;;;20.20;76.10;;;;;;10414843;28;20208;-24
2021/07/31 19:25:56;;;;;;;2.53;1.20;;;20.20;76.20;;;;;;10449101;28;20216;-25
2021/07/31 19:31:18;;;;;;;6.17;1.67;;;20.20;76.00;;;;;;10408876;28;20308;-25
2021/07/31 19:36:43;;;;;;;3.93;1.80;;;20.20;76.10;;;;;;10440184;28;20192;-23
2021/07/31 19:42:05;;;;;;;2.67;1.60;;;20.20;76.40;;;;;;10424465;28;20224;-23
2021/07/31 19:47:28;;;;;;;1.17;1.07;;;20.10;76.30;;;;;;10457901;28;20583;-23
2021/07/31 19:52:51;;;;;;;3.60;1.67;;;20.10;76.70;;;;;;10491889;28;20213;-23
2021/07/31 19:58:13;;;;;;;2.70;1.30;;;20.10;76.90;;;;;;10489972;28;20196;-23
2021/07/31 20:03:37;;;;;;;4.40;2.23;;;20.10;77.10;;;;;;10487803;28;20235;-22
2021/07/31 20:09:01;;;;;;;2.13;1.70;;;20.10;77.20;;;;;;10483538;28;20278;-22
2021/07/31 20:14:23;;;;;;;3.83;2.10;;;20.10;77.80;;;;;;10484573;28;20208;-24
2021/07/31 20:19:45;;;;;;;2.37;1.90;;;20.00;78.80;;;;;;10491381;28;20704;-22
2021/07/31 20:25:10;;;;;;;3.43;1.97;;;20.00;79.40;;;;;;10491461;28;20220;-22
2021/07/31 20:30:33;;;;;;;3.70;1.70;;;20.00;79.50;;;;;;10491424;28;20254;-25
2021/07/31 20:35:55;;;;;;;2.17;1.30;;;20.00;79.50;;;;;;10481581;28;20212;-23
2021/07/31 20:41:18;;;;;;;2.13;1.40;;;20.00;79.30;;;;;;10479571;28;20207;-22
2021/07/31 20:46:41;;;;;;;3.07;1.63;;;19.90;78.90;;;;;;10411826;28;20217;-22
2021/07/31 20:52:04;;;;;;;3.10;1.90;;;19.90;79.20;;;;;;10450611;28;20224;-24
2021/07/31 20:57:28;;;;;;;2.37;1.60;;;19.90;78.80;;;;;;10456562;22;20233;-32
2021/07/31 21:02:50;;;;;;;2.20;1.87;;;19.90;78.70;;;;;;10371698;28;20198;-32
2021/07/31 21:08:12;;;;;;;3.60;2.10;;;19.90;78.60;;;;;;10362748;28;20219;-33
2021/07/31 21:13:35;;;;;;;2.33;1.60;;;19.80;78.30;;;;;;10333718;28;20257;-31
2021/07/31 21:18:57;;;;;;;2.83;1.53;;;19.80;78.40;;;;;;10331010;28;20219;-32
2021/07/31 21:24:20;;;;;;;4.17;1.87;;;19.80;78.50;;;;;;10312989;28;20725;-33
2021/07/31 21:29:43;;;;;;;2.37;1.50;;;19.70;78.60;;;;;;10338072;28;20223;-30
2021/07/31 21:35:06;;;;;;;2.30;1.60;;;19.70;78.80;;;;;;10379496;28;20605;-31
2021/07/31 21:40:28;;;;;;;3.03;1.80;;;19.80;78.90;;;;;;10356668;28;20590;-31
2021/07/31 21:45:51;;;;;;;2.80;1.63;;;19.80;78.90;;;;;;10366088;28;20616;-31
2021/07/31 21:51:13;;;;;;;2.17;1.80;;;19.80;78.80;;;;;;10350263;28;20222;-32
2021/07/31 21:56:36;;;;;;;3.70;2.07;;;19.80;78.60;;;;;;10353441;28;20194;-30
2021/07/31 22:01:59;;;;;;;2.97;1.83;;;19.80;78.40;;;;;;10352774;28;20202;-33
2021/07/31 22:07:21;;;;;;;2.60;1.93;;;19.80;78.40;;;;;;10332559;28;20237;-33
2021/07/31 22:12:43;;;;;;;3.60;1.77;;;19.90;78.40;;;;;;10339514;28;20203;-32
2021/07/31 22:18:07;;;;;;;2.70;1.77;;;19.90;78.20;;;;;;10309534;28;20255;-32
2021/07/31 22:23:29;;;;;;;4.57;1.70;;;19.80;78.40;;;;;;10332664;28;20199;-30
2021/07/31 22:28:51;;;;;;;3.53;1.73;;;19.80;78.30;;;;;;10339619;28;20218;-31
2021/07/31 22:34:15;;;;;;;3.07;1.60;;;19.80;78.50;;;;;;10334772;28;20210;-32
2021/07/31 22:39:37;;;;;;;2.80;1.83;;;19.90;78.20;;;;;;10311313;28;20220;-31
2021/07/31 22:44:59;;;;;;;3.23;1.77;;;19.90;78.10;;;;;;10338990;28;20683;-30
2021/07/31 22:50:22;;;;;;;4.00;1.60;;;19.80;77.90;;;;;;10314395;28;20591;-31
2021/07/31 22:55:44;;;;;;;3.93;1.60;;;19.80;77.70;;;;;;10308949;28;20188;-33
2021/07/31 23:01:07;;;;;;;4.00;1.77;;;19.80;77.90;;;;;;10323412;28;20701;-34
2021/07/31 23:06:30;;;;;;;1.83;1.60;;;19.80;77.70;;;;;;10335093;28;20226;-30
2021/07/31 23:11:52;;;;;;;2.27;1.70;;;19.70;77.60;;;;;;10335869;28;20702;-32
2021/07/31 23:17:14;;;;;;;2.27;1.67;;;19.70;77.60;;;;;;10337559;28;20226;-31
2021/07/31 23:22:37;;;;;;;2.47;1.47;;;19.70;77.30;;;;;;10335098;28;20578;-32
2021/07/31 23:28:00;;;;;;;5.00;1.90;;;19.70;77.40;;;;;;10335085;28;20833;-31
2021/07/31 23:33:22;;;;;;;4.43;2.00;;;19.70;77.70;;;;;;10335486;28;20690;-30
2021/07/31 23:38:45;;;;;;;2.73;1.80;;;19.70;77.70;;;;;;10297064;28;20703;-31
2021/07/31 23:44:07;;;;;;;2.97;1.60;;;19.60;77.50;;;;;;10297114;28;20212;-32
2021/07/31 23:49:29;;;;;;;2.80;1.70;;;19.60;77.40;;;;;;10305667;28;20219;-33
2021/07/31 23:54:52;;;;;;;6.47;1.80;;;19.60;77.40;;;;;;10319171;28;20556;-35
